createdAt,value
2018-02-21T00:00:05.372Z,31.73
2018-02-21T00:05:06.684Z,33.07
2018-02-21T00:10:08.066Z,32.00
2018-02-21T00:15:09.381Z,36.17
2018-02-21T00:20:10.714Z,35.83
2018-02-21T00:25:12.863Z,31.67
2018-02-21T00:30:14.219Z,33.00
2018-02-21T00:35:15.547Z,30.63
2018-02-21T00:40:16.923Z,30.90
2018-02-21T00:45:18.244Z,31.90
2018-02-21T00:50:19.556Z,31.90
2018-02-21T00:55:21.134Z,28.93
2018-02-21T01:00:22.602Z,30.30
2018-02-21T01:05:23.927Z,31.60
2018-02-21T01:10:25.292Z,31.00
2018-02-21T01:15:26.638Z,32.73
2018-02-21T01:20:27.984Z,31.27
2018-02-21T01:25:29.354Z,31.97
2018-02-21T01:30:30.688Z,30.97
2018-02-21T01:35:32.794Z,32.30
2018-02-21T01:40:34.186Z,30.70
2018-02-21T01:45:36.268Z,32.10
2018-02-21T01:50:51.746Z,31.50
2018-02-21T01:55:53.076Z,30.80
2018-02-21T02:00:54.560Z,31.07
2018-02-21T02:05:55.883Z,31.80
2018-02-21T02:10:57.927Z,29.97
2018-02-21T02:15:59.243Z,30.60
2018-02-21T02:21:00.635Z,29.60
2018-02-21T02:26:01.991Z,30.17
2018-02-21T02:31:03.328Z,31.90
2018-02-21T02:36:04.684Z,29.73
2018-02-21T02:41:06.031Z,31.23
2018-02-21T02:46:08.128Z,29.67
2018-02-21T02:51:09.473Z,29.60
2018-02-21T02:56:10.825Z,30.70
2018-02-21T03:01:12.935Z,31.00
2018-02-21T03:06:15.036Z,30.60
2018-02-21T03:11:17.145Z,28.80
2018-02-21T03:16:19.336Z,32.50
2018-02-21T03:21:20.663Z,31.33
2018-02-21T03:26:22.051Z,30.70
2018-02-21T03:31:23.375Z,29.47
2018-02-21T03:36:24.735Z,28.27
2018-02-21T03:41:26.054Z,28.50
2018-02-21T03:46:27.373Z,31.37
2018-02-21T03:51:28.722Z,27.77
2018-02-21T03:56:30.076Z,28.33
2018-02-21T04:01:32.150Z,27.40
2018-02-21T04:06:33.519Z,28.43
2018-02-21T04:11:34.863Z,29.37
2018-02-21T04:16:36.979Z,27.87
2018-02-21T04:21:38.352Z,27.87
2018-02-21T04:26:39.707Z,28.83
2018-02-21T04:31:41.107Z,28.70
2018-02-21T04:36:42.485Z,28.57
2018-02-21T04:41:43.907Z,27.40
2018-02-21T04:46:45.256Z,28.00
2018-02-21T04:51:46.571Z,30.37
2018-02-21T04:56:52.812Z,26.50
2018-02-21T05:01:54.190Z,28.93
2018-02-21T05:06:56.326Z,29.77
2018-02-21T05:11:57.651Z,28.67
2018-02-21T05:16:59.006Z,30.00
2018-02-21T05:22:00.352Z,26.50
2018-02-21T05:27:01.733Z,24.50
2018-02-21T05:32:03.084Z,26.60
2018-02-21T05:37:04.440Z,25.70
2018-02-21T05:42:06.591Z,26.43
2018-02-21T05:47:07.972Z,25.93
2018-02-21T05:52:09.351Z,23.63
2018-02-21T05:57:10.748Z,26.47
2018-02-21T06:02:12.197Z,24.80
2018-02-21T06:07:13.555Z,23.47
2018-02-21T06:12:14.916Z,24.07
2018-02-21T06:17:16.237Z,23.90
2018-02-21T06:22:17.627Z,24.93
2018-02-21T06:27:19.061Z,25.80
2018-02-21T06:32:20.411Z,26.10
2018-02-21T06:37:21.761Z,23.13
2018-02-21T06:42:23.824Z,24.63
2018-02-21T06:47:25.164Z,25.50
2018-02-21T06:52:26.524Z,25.00
2018-02-21T06:57:28.786Z,24.90
2018-02-21T07:02:34.024Z,26.67
2018-02-21T07:07:36.100Z,26.33
2018-02-21T07:12:44.404Z,24.87
2018-02-21T07:17:45.902Z,25.30
2018-02-21T07:22:48.249Z,23.10
2018-02-21T07:27:49.661Z,23.87
2018-02-21T07:32:50.996Z,23.70
2018-02-21T07:37:52.321Z,23.27
2018-02-21T07:42:53.708Z,22.27
2018-02-21T07:47:55.067Z,23.90
2018-02-21T07:52:56.834Z,23.90
2018-02-21T07:57:58.271Z,22.90
2018-02-21T08:02:59.679Z,24.70
2018-02-21T08:08:01.327Z,20.60
2018-02-21T08:13:03.419Z,23.50
2018-02-21T08:18:05.610Z,26.33
2018-02-21T08:23:06.963Z,22.27
2018-02-21T08:28:08.370Z,20.30
2018-02-21T08:33:09.818Z,21.03
2018-02-21T08:38:12.708Z,22.23
2018-02-21T08:43:14.077Z,21.23
2018-02-21T08:48:15.494Z,21.67
2018-02-21T08:53:16.827Z,22.83
2018-02-21T08:58:18.209Z,21.80
2018-02-21T09:03:19.608Z,22.27
2018-02-21T09:08:20.971Z,21.67
2018-02-21T09:13:23.047Z,20.73
2018-02-21T09:18:24.392Z,21.40
2018-02-21T09:23:25.790Z,19.13
2018-02-21T09:28:27.364Z,20.57
2018-02-21T09:33:29.438Z,19.87
2018-02-21T09:38:30.812Z,20.30
2018-02-21T09:43:32.167Z,21.70
2018-02-21T09:48:33.579Z,22.90
2018-02-21T09:53:34.974Z,20.60
2018-02-21T09:58:36.361Z,21.90
2018-02-21T10:03:37.732Z,18.80
2018-02-21T10:08:39.065Z,20.03
2018-02-21T10:13:40.487Z,18.63
2018-02-21T10:18:41.810Z,18.47
2018-02-21T10:23:43.180Z,21.90
2018-02-21T10:28:44.579Z,21.17
2018-02-21T10:33:45.938Z,20.97
2018-02-21T10:38:47.344Z,20.60
2018-02-21T10:43:49.442Z,20.10
2018-02-21T10:48:51.565Z,20.40
2018-02-21T10:53:53.640Z,20.37
2018-02-21T10:58:55.008Z,18.20
2018-02-21T11:03:56.390Z,18.40
2018-02-21T11:08:57.743Z,17.63
2018-02-21T11:13:59.817Z,18.03
2018-02-21T11:19:01.175Z,18.27
2018-02-21T11:24:02.572Z,16.53
2018-02-21T11:29:04.007Z,18.23
2018-02-21T11:34:06.078Z,18.80
2018-02-21T11:39:07.415Z,15.13
2018-02-21T11:44:09.539Z,15.20
2018-02-21T11:49:10.911Z,16.10
2018-02-21T11:54:13.063Z,12.77
2018-02-21T11:59:15.595Z,13.87
2018-02-21T12:04:17.127Z,13.20
2018-02-21T12:09:19.755Z,13.20
2018-02-21T12:14:21.196Z,13.90
2018-02-21T12:19:22.692Z,13.63
2018-02-21T12:24:24.048Z,13.53
2018-02-21T12:29:25.437Z,13.80
2018-02-21T12:34:26.815Z,13.40
2018-02-21T12:39:33.275Z,13.10
2018-02-21T12:44:34.655Z,15.80
2018-02-21T12:49:37.398Z,14.50
2018-02-21T12:54:39.276Z,14.07
2018-02-21T12:59:40.788Z,14.70
2018-02-21T13:04:43.428Z,15.10
2018-02-21T13:09:45.548Z,16.43
2018-02-21T13:14:46.931Z,15.83
2018-02-21T13:19:49.090Z,16.03
2018-02-21T13:24:50.688Z,16.80
2018-02-21T13:29:52.062Z,16.53
2018-02-21T13:34:53.607Z,15.90
2018-02-21T13:39:54.973Z,15.57
2018-02-21T13:44:56.355Z,14.47
2018-02-21T13:49:57.735Z,14.90
2018-02-21T13:54:59.132Z,13.20
2018-02-21T14:00:00.585Z,13.67
2018-02-21T14:05:02.713Z,15.17
2018-02-21T14:10:04.121Z,14.00
2018-02-21T14:15:05.526Z,13.13
2018-02-21T14:20:06.927Z,14.97
2018-02-21T14:25:08.332Z,14.50
2018-02-21T14:30:09.716Z,14.20
2018-02-21T14:35:11.087Z,13.63
2018-02-21T14:40:12.467Z,13.43
2018-02-21T14:45:13.887Z,12.33
2018-02-21T14:50:15.260Z,13.10
2018-02-21T14:55:16.624Z,13.00
2018-02-21T15:00:17.985Z,12.67
2018-02-21T15:05:20.092Z,13.77
2018-02-21T15:10:22.508Z,14.37
2018-02-21T15:15:24.606Z,13.30
2018-02-21T15:20:26.764Z,12.57
2018-02-21T15:25:28.118Z,11.70
2018-02-21T15:30:30.640Z,12.80
2018-02-21T15:35:32.441Z,12.53
2018-02-21T15:40:41.208Z,12.90
2018-02-21T15:45:42.800Z,12.73
2018-02-21T15:50:44.284Z,13.30
2018-02-21T15:55:45.789Z,12.30
2018-02-21T16:00:47.277Z,13.93
2018-02-21T16:05:48.650Z,14.17
2018-02-21T16:10:50.768Z,14.40
2018-02-21T16:15:52.083Z,13.50
2018-02-21T16:20:53.487Z,14.50
2018-02-21T16:25:54.928Z,13.33
2018-02-21T16:30:56.391Z,12.13
2018-02-21T16:35:57.758Z,14.23
2018-02-21T16:40:59.148Z,14.57
2018-02-21T16:46:00.520Z,14.27
2018-02-21T16:51:01.925Z,15.50
2018-02-21T16:56:03.321Z,17.60
2018-02-21T17:01:04.694Z,24.50
2018-02-21T17:06:07.007Z,14.70
2018-02-21T17:11:08.429Z,24.13
2018-02-21T17:16:09.811Z,15.27
2018-02-21T17:21:11.123Z,16.33
2018-02-21T17:26:12.515Z,24.60
2018-02-21T17:31:13.873Z,49.73
2018-02-21T17:36:15.518Z,29.53
2018-02-21T17:41:32.669Z,22.70
2018-02-21T17:46:34.011Z,17.77
2018-02-21T17:51:35.371Z,21.80
2018-02-21T17:56:37.459Z,15.37
2018-02-21T18:01:38.890Z,26.73
2018-02-21T18:06:40.273Z,24.27
2018-02-21T18:11:41.652Z,40.63
2018-02-21T18:16:43.862Z,23.93
2018-02-21T18:21:48.899Z,39.27
2018-02-21T18:26:50.239Z,40.93
2018-02-21T18:31:51.677Z,13.73
2018-02-21T18:36:53.207Z,18.73
2018-02-21T18:41:54.651Z,18.50
2018-02-21T18:46:56.039Z,17.83
2018-02-21T18:51:57.411Z,14.80
2018-02-21T18:56:58.847Z,16.53
2018-02-21T19:02:00.239Z,15.90
2018-02-21T19:07:02.996Z,17.70
2018-02-21T19:12:05.102Z,18.00
2018-02-21T19:17:07.178Z,17.23
2018-02-21T19:22:09.296Z,15.27
2018-02-21T19:27:10.692Z,15.30
2018-02-21T19:32:13.051Z,20.60
2018-02-21T19:37:15.275Z,14.23
2018-02-21T19:42:16.640Z,12.37
2018-02-21T19:47:17.991Z,15.03
2018-02-21T19:52:20.271Z,14.07
2018-02-21T19:57:22.528Z,12.90
2018-02-21T20:02:23.935Z,11.50
2018-02-21T20:07:26.043Z,11.57
2018-02-21T20:12:27.431Z,11.10
2018-02-21T20:17:29.601Z,12.73
2018-02-21T20:22:30.940Z,12.00
2018-02-21T20:27:32.321Z,12.80
2018-02-21T20:32:33.691Z,12.23
2018-02-21T20:37:35.941Z,11.20
2018-02-21T20:42:37.420Z,10.07
2018-02-21T20:47:39.572Z,11.47
2018-02-21T20:52:40.921Z,11.80
2018-02-21T20:57:42.384Z,10.90
2018-02-21T21:02:43.907Z,11.43
2018-02-21T21:07:45.271Z,12.50
2018-02-21T21:12:46.659Z,11.73
2018-02-21T21:17:47.997Z,11.17
2018-02-21T21:22:49.468Z,12.60
2018-02-21T21:27:50.828Z,11.70
2018-02-21T21:32:52.172Z,11.40
2018-02-21T21:37:53.645Z,11.93
2018-02-21T21:42:55.735Z,12.73
2018-02-21T21:47:57.818Z,12.60
2018-02-21T21:52:59.431Z,10.50
2018-02-21T21:58:01.526Z,12.37
2018-02-21T22:03:03.067Z,11.73
2018-02-21T22:08:04.579Z,9.80
2018-02-21T22:13:05.955Z,11.63
2018-02-21T22:18:07.461Z,10.30
2018-02-21T22:23:08.843Z,11.80
2018-02-21T22:28:10.152Z,11.20
2018-02-21T22:33:11.579Z,11.07
2018-02-21T22:38:12.975Z,12.07
2018-02-21T22:43:15.083Z,10.50
2018-02-21T22:48:16.483Z,10.97
2018-02-21T22:53:17.831Z,10.43
2018-02-21T22:58:19.181Z,10.87
2018-02-21T23:03:20.530Z,11.10
2018-02-21T23:08:22.041Z,10.77
2018-02-21T23:13:24.180Z,11.27
2018-02-21T23:18:25.521Z,11.83
2018-02-21T23:23:26.926Z,11.70
2018-02-21T23:28:29.005Z,11.40
2018-02-21T23:33:30.315Z,10.70
2018-02-21T23:38:32.415Z,11.40
2018-02-21T23:43:33.776Z,11.37
2018-02-21T23:48:35.220Z,12.63
2018-02-21T23:53:36.707Z,11.20
2018-02-21T23:58:38.767Z,10.97
